Terminal Aerodrome Forecast
Issued by NWS Grand Forks, ND

Home | Current Version | Previous Version | Graphics & Text | Print | Product List | Glossary On
Versions: 1 2 3 4 5 6 7 8 9 10 11 12 13 14 15 16 17
873
FTUS43 KFGF 232032 AAC
TAFFAR
TAF AMD
KFAR 232032Z 2321/2418 16013G21KT P6SM VCTS BKN060CB
      TEMPO 2321/2323 BKN025CB
     FM240000 19009KT P6SM SCT090
     FM240300 24009KT P6SM FEW250
     FM241500 30014G20KT P6SM FEW250=

USA.gov is the U.S. government's official web portal to all federal, state and local government web resources and services.